Time;durP1;ratioP1;P1;durP2;ratioP2;P2;SDS_P1;SDS_P2;PMS_P1;PMS_P2;Temp;Humidity;BMP_temperature;BMP_pressure;BME280_temperature;BME280_humidity;BME280_pressure;Samples;Min_cycle;Max_cycle;Signal;HPM_P1;HPM_P2
2022/09/15 00:02:59;;;;;;;2.23;0.67;;;;;;;20.42;66.17;95858.75;10549846;28;20027;-27
2022/09/15 00:08:00;;;;;;;1.27;1.10;;;;;;;20.42;65.80;95858.75;10544738;28;20035;-28
2022/09/15 00:13:00;;;;;;;1.50;0.60;;;;;;;20.44;65.39;95853.59;10546910;28;20053;-28
2022/09/15 00:18:02;;;;;;;1.87;0.70;;;;;;;20.53;65.75;95852.53;10550605;28;20110;-27
2022/09/15 00:23:02;;;;;;;1.17;0.95;;;;;;;20.54;65.52;95849.97;10553255;28;20666;-27
2022/09/15 00:28:02;;;;;;;2.10;0.60;;;;;;;20.49;65.50;95836.53;10553704;28;20036;-28
2022/09/15 00:33:03;;;;;;;1.07;0.90;;;;;;;20.44;65.88;95830.72;10547110;28;20032;-27
2022/09/15 00:38:04;;;;;;;5.00;0.97;;;;;;;20.43;65.97;95823.94;10551978;28;20044;-28
2022/09/15 00:43:08;;;;;;;1.48;0.75;;;;;;;20.39;66.31;95832.50;10550275;28;20289;-28
2022/09/15 00:48:13;;;;;;;1.20;0.82;;;;;;;20.40;66.11;95826.53;10544577;28;20039;-28
2022/09/15 00:53:16;;;;;;;0.70;0.50;;;;;;;20.38;65.66;95802.03;10549386;28;20080;-28
2022/09/15 00:58:19;;;;;;;1.35;0.50;;;;;;;20.41;65.67;95812.13;10551878;28;20031;-28
2022/09/15 01:03:21;;;;;;;0.70;0.60;;;;;;;20.46;65.29;95811.16;10552801;28;20036;-27
2022/09/15 01:08:41;;;;;;;0.85;0.60;;;;;;;20.47;65.08;95802.66;10549884;28;20039;-28
2022/09/15 01:13:43;;;;;;;2.67;0.70;;;;;;;20.49;65.12;95805.19;10550342;28;20039;-28
2022/09/15 01:19:16;;;;;;;1.05;0.75;;;;;;;20.45;65.08;95789.16;10560362;28;20483;-27
2022/09/15 01:24:40;;;;;;;1.58;0.70;;;;;;;20.45;65.12;95793.41;10552838;28;20109;-28
2022/09/15 01:29:49;;;;;;;1.08;0.50;;;;;;;20.43;65.23;95806.16;10557056;28;20419;-28
2022/09/15 01:35:01;;;;;;;1.83;0.50;;;;;;;20.38;64.77;95806.28;10556286;28;20089;-28
2022/09/15 01:40:03;;;;;;;1.05;0.70;;;;;;;20.36;65.31;95796.13;10556230;28;20041;-28
2022/09/15 01:45:10;;;;;;;0.73;0.50;;;;;;;20.39;65.42;95789.28;10550074;28;20036;-29
2022/09/15 01:50:16;;;;;;;0.93;0.60;;;;;;;20.45;64.97;95796.78;10559719;28;20131;-28
2022/09/15 01:55:25;;;;;;;1.30;0.60;;;;;;;20.48;64.86;95799.25;10557317;28;20040;-28
2022/09/15 02:00:27;;;;;;;1.83;0.70;;;;;;;20.38;64.61;95806.28;10558123;28;20039;-28
2022/09/15 02:05:36;;;;;;;1.05;0.43;;;;;;;20.42;64.29;95807.03;10556253;28;20043;-28
2022/09/15 02:10:59;;;;;;;2.55;0.57;;;;;;;20.40;64.26;95801.13;10561106;28;20043;-31
2022/09/15 02:16:00;;;;;;;1.20;0.60;;;;;;;20.42;64.27;95799.41;10542055;28;20513;-29
2022/09/15 02:21:11;;;;;;;0.98;0.50;;;;;;;20.42;64.18;95804.50;10558405;27;20118;-29
2022/09/15 02:26:16;;;;;;;1.13;0.70;;;;;;;20.42;63.84;95799.41;10562614;28;20043;-28
2022/09/15 02:31:19;;;;;;;1.55;0.60;;;;;;;20.44;63.78;95792.56;10558165;28;20492;-29
2022/09/15 02:36:20;;;;;;;0.88;0.57;;;;;;;20.50;63.46;95782.28;10552949;28;20019;-28
2022/09/15 02:41:22;;;;;;;0.90;0.52;;;;;;;20.51;63.40;95785.63;10556646;28;20047;-27
2022/09/15 02:46:22;;;;;;;1.05;0.60;;;;;;;20.50;63.39;95792.44;10555738;28;20070;-28
2022/09/15 02:51:22;;;;;;;0.63;0.53;;;;;;;20.44;63.25;95784.09;10550686;28;20464;-30
2022/09/15 02:56:23;;;;;;;1.13;0.60;;;;;;;20.42;63.36;95785.84;10559791;28;20032;-28
2022/09/15 03:01:30;;;;;;;1.00;0.60;;;;;;;20.45;63.21;95796.78;10557666;28;20027;-27
2022/09/15 03:06:33;;;;;;;1.70;0.70;;;;;;;20.47;63.31;95805.19;10552517;28;20633;-28
2022/09/15 03:11:35;;;;;;;0.82;0.50;;;;;;;20.40;63.52;95805.38;10555585;28;20036;-28
2022/09/15 03:16:35;;;;;;;0.63;0.40;;;;;;;20.39;63.97;95798.63;10549051;28;20031;-28
2022/09/15 03:21:36;;;;;;;2.93;1.10;;;;;;;20.42;64.55;95818.06;10551119;28;20406;-28
2022/09/15 03:26:36;;;;;;;2.70;0.80;;;;;;;20.42;64.90;95818.88;10554347;28;20050;-27
2022/09/15 03:31:37;;;;;;;1.50;0.80;;;;;;;20.37;65.17;95823.25;10549353;28;20513;-27
2022/09/15 03:36:37;;;;;;;1.73;0.77;;;;;;;20.33;65.42;95821.63;10555752;28;20719;-27
2022/09/15 03:41:38;;;;;;;2.30;1.33;;;;;;;20.31;65.72;95831.00;10549014;28;20066;-28
2022/09/15 03:46:38;;;;;;;1.70;0.70;;;;;;;20.29;65.44;95826.81;10544972;28;20036;-28
2022/09/15 03:51:38;;;;;;;2.27;0.80;;;;;;;20.29;65.72;95826.81;10529787;28;20291;-28
2022/09/15 03:56:39;;;;;;;1.17;0.63;;;;;;;20.28;65.79;95832.78;10525242;28;20028;-27
2022/09/15 04:01:39;;;;;;;1.07;0.57;;;;;;;20.28;66.08;95832.78;10529789;28;20111;-27
2022/09/15 04:06:40;;;;;;;2.17;1.00;;;;;;;20.31;66.25;95827.63;10518889;28;20036;-28
2022/09/15 04:11:41;;;;;;;3.38;0.88;;;;;;;20.34;65.76;95833.47;10545491;28;20031;-27
2022/09/15 04:16:41;;;;;;;2.70;1.20;;;;;;;20.36;65.69;95836.00;10536809;28;20031;-27
2022/09/15 04:21:42;;;;;;;2.33;0.80;;;;;;;20.33;66.24;95815.72;10542623;28;20043;-28
2022/09/15 04:26:43;;;;;;;1.50;0.70;;;;;;;20.32;66.28;95806.41;10545353;28;20419;-28
2022/09/15 04:31:45;;;;;;;0.80;0.70;;;;;;;20.34;66.25;95809.78;10549670;28;20281;-28
2022/09/15 04:36:46;;;;;;;2.67;0.73;;;;;;;20.30;66.05;95803.06;10545355;28;20080;-27
2022/09/15 04:41:46;;;;;;;1.30;0.63;;;;;;;20.28;66.49;95805.63;10537926;28;20036;-28
2022/09/15 04:46:47;;;;;;;0.97;0.70;;;;;;;20.27;66.24;95806.50;10549274;28;20089;-29
2022/09/15 04:51:47;;;;;;;3.13;0.70;;;;;;;20.27;66.56;95792.97;10546270;28;20043;-28
2022/09/15 04:56:48;;;;;;;1.13;0.70;;;;;;;20.35;66.48;95791.09;10559631;28;20035;-28
2022/09/15 05:01:54;;;;;;;2.03;0.65;;;;;;;20.38;65.62;95782.53;10547330;28;20301;-27
2022/09/15 05:06:54;;;;;;;1.38;0.80;;;;;;;20.43;65.76;95792.59;10546927;28;20046;-28
2022/09/15 05:11:55;;;;;;;2.17;0.63;;;;;;;20.45;65.48;95793.41;10551457;28;20050;-28
2022/09/15 05:16:55;;;;;;;0.93;0.40;;;;;;;20.38;65.44;95775.78;10547779;28;20142;-28
2022/09/15 05:21:55;;;;;;;0.50;0.50;;;;;;;20.40;65.44;95790.13;10549707;28;20439;-28
2022/09/15 05:26:56;;;;;;;1.97;0.80;;;;;;;20.33;65.49;95787.78;10553250;28;20040;-29
2022/09/15 05:31:56;;;;;;;1.03;0.50;;;;;;;20.30;65.62;95800.53;10541844;28;20065;-27
2022/09/15 05:36:56;;;;;;;1.67;0.50;;;;;;;20.30;65.97;95808.16;10548143;28;20043;-28
2022/09/15 05:41:58;;;;;;;4.20;0.80;;;;;;;20.32;65.74;95798.78;10550502;28;20044;-27
2022/09/15 05:46:59;;;;;;;2.20;0.73;;;;;;;20.38;65.48;95798.66;10537077;28;20036;-27
2022/09/15 05:51:59;;;;;;;1.42;0.70;;;;;;;20.42;65.64;95805.34;10520191;28;20541;-28
2022/09/15 05:57:00;;;;;;;0.90;0.60;;;;;;;20.37;65.66;95804.63;10551664;28;20086;-27
2022/09/15 06:02:00;;;;;;;0.80;0.70;;;;;;;20.37;65.68;95819.88;10534454;28;20816;-28
2022/09/15 06:07:01;;;;;;;3.05;1.25;;;;;;;20.36;65.77;95813.94;10554402;28;20032;-27
2022/09/15 06:12:01;;;;;;;2.67;0.98;;;;;;;20.34;65.84;95815.69;10561459;28;20040;-28
2022/09/15 06:17:02;;;;;;;1.25;0.77;;;;;;;20.31;66.14;95812.38;10555379;28;20109;-27
2022/09/15 06:22:03;;;;;;;0.70;0.70;;;;;;;20.29;66.11;95814.97;10555998;28;20213;-28
2022/09/15 06:27:03;;;;;;;1.92;0.70;;;;;;;20.27;66.30;95831.09;10558592;27;20092;-27
2022/09/15 06:32:03;;;;;;;0.97;0.60;;;;;;;20.29;66.08;95834.44;10552982;28;20043;-27
2022/09/15 06:37:04;;;;;;;2.45;0.70;;;;;;;20.33;66.16;95843.69;10557407;28;20297;-27
2022/09/15 06:42:04;;;;;;;1.10;0.80;;;;;;;20.33;66.11;95841.16;10555598;28;20035;-28
2022/09/15 06:47:06;;;;;;;4.65;0.95;;;;;;;20.34;65.80;95855.53;10551483;28;20297;-28
2022/09/15 06:52:06;;;;;;;3.38;0.80;;;;;;;20.30;66.08;95846.28;10548714;28;20035;-30
2022/09/15 06:57:07;;;;;;;5.00;1.17;;;;;;;20.30;66.31;95843.75;10541920;28;20028;-28
2022/09/15 07:02:08;;;;;;;3.60;1.07;;;;;;;20.28;66.47;95858.19;10543575;28;20040;-28
2022/09/15 07:07:08;;;;;;;4.65;0.70;;;;;;;20.28;66.44;95858.19;10550498;28;20064;-28
2022/09/15 07:12:09;;;;;;;3.27;1.17;;;;;;;20.27;66.46;95859.06;10558848;28;20520;-29
2022/09/15 07:17:09;;;;;;;2.55;1.00;;;;;;;20.26;66.69;95865.03;10548623;28;20063;-27
2022/09/15 07:22:10;;;;;;;4.67;1.40;;;;;;;20.34;66.22;95863.16;10555433;28;20039;-27
2022/09/15 07:27:11;;;;;;;3.50;1.38;;;;;;;20.38;66.46;95859.66;10556434;28;20039;-28
2022/09/15 07:32:11;;;;;;;4.27;1.37;;;;;;;20.36;66.42;95858.88;10543467;28;20510;-28
2022/09/15 07:37:11;;;;;;;2.53;1.40;;;;;;;20.31;66.66;95863.19;10548854;28;20027;-28
2022/09/15 07:42:12;;;;;;;2.03;1.40;;;;;;;20.30;66.59;95876.78;10554881;28;20114;-28
2022/09/15 07:47:12;;;;;;;4.70;1.93;;;;;;;20.29;66.54;95872.56;10548147;28;20514;-28
2022/09/15 07:52:12;;;;;;;5.47;2.40;;;;;;;20.27;66.55;95874.31;10548404;28;20297;-27
2022/09/15 07:57:13;;;;;;;6.07;2.20;;;;;;;20.26;66.53;95882.81;10554705;28;20101;-28
2022/09/15 08:02:18;;;;;;;3.70;1.80;;;;;;;20.29;66.36;95882.75;10548601;28;20069;-27
2022/09/15 08:07:18;;;;;;;6.22;2.22;;;;;;;20.29;66.98;95885.28;10551027;28;20040;-28
2022/09/15 08:12:19;;;;;;;10.70;2.70;;;;;;;20.34;66.44;95888.59;10556614;28;20599;-28
2022/09/15 08:17:19;;;;;;;7.13;2.50;;;;;;;20.42;66.25;95890.94;10543417;28;20024;-28
2022/09/15 08:22:19;;;;;;;10.40;2.93;;;;;;;20.45;66.25;95890.03;10555470;28;20027;-28
2022/09/15 08:27:20;;;;;;;15.33;3.03;;;;;;;20.42;66.29;95896.00;10554951;28;20032;-28
2022/09/15 08:32:20;;;;;;;5.20;2.23;;;;;;;20.38;66.05;95894.38;10546179;28;20077;-28
2022/09/15 08:37:20;;;;;;;6.63;1.93;;;;;;;20.36;66.37;95905.44;10553953;28;20028;-28
2022/09/15 08:42:22;;;;;;;5.60;1.67;;;;;;;20.35;66.48;95898.69;10552782;28;20072;-27
2022/09/15 08:47:26;;;;;;;4.18;1.98;;;;;;;20.33;66.46;95902.16;10548385;28;20293;-28
2022/09/15 08:52:32;;;;;;;3.10;1.27;;;;;;;20.30;66.59;95903.06;10547872;28;20061;-27
2022/09/15 08:57:33;;;;;;;1.50;0.98;;;;;;;20.29;66.70;95918.31;10551798;28;20034;-28
2022/09/15 09:02:41;;;;;;;2.27;1.20;;;;;;;20.35;66.10;95908.88;10553060;28;20527;-28
2022/09/15 09:08:05;;;;;;;1.67;1.20;;;;;;;20.44;66.07;95917.16;10535072;28;20093;-28
2022/09/15 09:13:35;;;;;;;1.27;0.75;;;;;;;20.43;66.08;95912.94;10552564;28;20116;-27
2022/09/15 09:18:52;;;;;;;1.70;0.90;;;;;;;20.40;66.31;95915.53;10547735;28;20040;-28
2022/09/15 09:24:16;;;;;;;1.27;0.80;;;;;;;20.34;66.58;95914.81;10537985;28;20036;-28
2022/09/15 09:29:18;;;;;;;0.90;0.70;;;;;;;20.33;66.35;95908.06;10547135;28;20039;-28
2022/09/15 09:34:30;;;;;;;1.77;0.85;;;;;;;20.32;66.49;95911.47;10556167;28;20039;-28
2022/09/15 09:39:30;;;;;;;1.40;0.75;;;;;;;20.31;66.61;95911.50;10556600;28;20038;-28
2022/09/15 09:44:31;;;;;;;1.30;0.67;;;;;;;20.32;66.32;95895.38;10546724;28;20028;-28
2022/09/15 09:49:33;;;;;;;0.57;0.57;;;;;;;20.31;66.32;95903.88;10561076;28;20123;-27
2022/09/15 09:54:34;;;;;;;1.30;0.70;;;;;;;20.37;66.09;95898.69;10552058;28;20056;-27
2022/09/15 09:59:49;;;;;;;1.20;0.98;;;;;;;20.40;65.80;95887.56;10557569;28;20551;-28
2022/09/15 10:04:53;;;;;;;1.00;0.65;;;;;;;20.44;65.76;95886.63;10548434;28;20114;-28
2022/09/15 10:09:56;;;;;;;1.38;1.08;;;;;;;20.40;65.92;95892.66;10561196;28;20036;-28
2022/09/15 10:15:04;;;;;;;2.28;0.65;;;;;;;20.43;66.06;95881.56;10551229;28;20078;-28
2022/09/15 10:20:31;;;;;;;0.93;0.60;;;;;;;20.39;66.38;95890.16;10553099;28;20085;-28
2022/09/15 10:25:35;;;;;;;1.52;0.85;;;;;;;20.35;66.38;95873.28;10558892;28;20033;-27
2022/09/15 10:30:37;;;;;;;1.50;0.55;;;;;;;20.33;66.50;95879.28;10545411;28;20063;-27
2022/09/15 10:35:41;;;;;;;15.70;1.52;;;;;;;20.42;66.06;95884.19;10556154;28;20073;-28
2022/09/15 10:41:10;;;;;;;4.28;0.75;;;;;;;20.38;66.22;95883.41;10552369;28;20415;-28
2022/09/15 10:46:26;;;;;;;2.03;0.75;;;;;;;20.47;65.94;95878.94;10533009;28;20134;-27
2022/09/15 10:51:39;;;;;;;1.58;0.52;;;;;;;20.46;65.52;95872.19;10551398;28;20075;-27
2022/09/15 10:56:43;;;;;;;0.80;0.52;;;;;;;20.47;65.60;95889.09;10543354;28;20036;-27
2022/09/15 11:02:02;;;;;;;2.03;0.80;;;;;;;20.42;65.58;95875.69;10554831;28;20038;-28
2022/09/15 11:07:08;;;;;;;1.00;0.80;;;;;;;20.39;65.95;95880.81;10551029;28;20032;-28
2022/09/15 11:12:24;;;;;;;;;;;;;;;20.38;65.88;95880.00;10552687;28;20032;-28
2022/09/15 11:17:57;;;;;;;1.83;0.50;;;;;;;20.39;65.61;95885.06;10541990;28;19912;-30
2022/09/15 11:23:10;;;;;;;1.23;0.70;;;;;;;20.40;65.71;95890.09;10544450;28;20097;-29
2022/09/15 11:28:35;;;;;;;1.65;0.70;;;;;;;20.39;65.82;95890.97;10554217;28;20115;-28
2022/09/15 11:34:18;;;;;;;1.25;0.65;;;;;;;20.45;65.56;95890.03;10556816;28;20031;-28
2022/09/15 11:39:25;;;;;;;0.80;0.40;;;;;;;20.51;65.45;95889.88;10413822;28;20049;-28
2022/09/15 11:44:33;;;;;;;1.52;0.52;;;;;;;20.47;65.59;95895.91;10522874;28;20071;-29
2022/09/15 11:49:50;;;;;;;1.75;0.85;;;;;;;20.45;65.77;95898.47;10556210;28;20426;-28
2022/09/15 11:55:01;;;;;;;1.25;0.55;;;;;;;20.42;65.80;95901.09;10543582;28;20035;-29
2022/09/15 12:00:09;;;;;;;1.35;0.60;;;;;;;20.41;66.00;95893.50;10535740;28;20097;-29
2022/09/15 12:05:22;;;;;;;1.60;0.75;;;;;;;20.42;66.07;95899.44;10540320;28;20123;-29
2022/09/15 12:10:29;;;;;;;0.93;0.50;;;;;;;20.35;66.36;95880.91;10552137;28;20059;-29
2022/09/15 12:15:30;;;;;;;0.80;0.60;;;;;;;20.41;66.42;95893.50;10544620;28;20031;-29
2022/09/15 12:20:38;;;;;;;0.50;0.50;;;;;;;20.40;66.50;95910.44;10552282;28;20032;-29
2022/09/15 12:26:07;;;;;;;1.23;0.52;;;;;;;20.48;66.18;95931.47;10540375;28;20408;-28
2022/09/15 12:31:31;;;;;;;0.75;0.50;;;;;;;20.49;66.24;95967.91;10553690;28;20118;-29
2022/09/15 12:36:33;;;;;;;0.55;0.52;;;;;;;20.34;67.39;95968.19;10547008;28;20028;-28
2022/09/15 12:41:34;;;;;;;1.17;0.45;;;;;;;20.32;68.16;95974.19;10552959;28;20035;-28
2022/09/15 12:46:34;;;;;;;1.88;0.60;;;;;;;20.29;68.54;95974.25;10551308;28;20408;-28
2022/09/15 12:51:35;;;;;;;1.53;0.70;;;;;;;20.29;69.02;95974.25;10546756;28;20042;-28
2022/09/15 12:56:35;;;;;;;1.03;0.40;;;;;;;20.27;68.91;95978.53;10553301;28;20293;-29
2022/09/15 13:01:47;;;;;;;9.88;1.23;;;;;;;20.40;68.98;95981.63;10537909;28;20039;-28
2022/09/15 13:07:15;;;;;;;16.70;2.45;;;;;;;20.48;69.14;95981.50;10555166;28;20852;-28
2022/09/15 13:12:18;;;;;;;1.30;0.35;;;;;;;20.32;69.51;95966.56;10557457;28;20092;-29
2022/09/15 13:17:22;;;;;;;1.65;0.57;;;;;;;20.38;68.92;95996.09;10559433;28;20546;-28
2022/09/15 13:22:31;;;;;;;2.28;0.38;;;;;;;20.42;68.80;95996.03;10562836;28;20032;-28
2022/09/15 13:27:41;;;;;;;1.25;0.57;;;;;;;20.33;69.48;96012.28;10561288;28;20056;-28
2022/09/15 13:33:08;;;;;;;2.08;0.50;;;;;;;20.30;69.59;96021.69;10555102;28;20419;-29
2022/09/15 13:38:35;;;;;;;1.33;0.75;;;;;;;20.28;69.36;96031.03;10556632;28;20047;-28
2022/09/15 13:44:08;;;;;;;0.73;0.50;;;;;;;20.26;69.33;96027.69;10557217;28;20101;-28
2022/09/15 13:49:28;;;;;;;1.38;0.50;;;;;;;20.24;69.52;96026.84;10559097;28;20123;-28
2022/09/15 13:54:29;;;;;;;1.30;1.10;;;;;;;20.22;69.62;96032.00;10551629;28;20035;-30
2022/09/15 13:59:31;;;;;;;1.27;0.40;;;;;;;20.21;69.30;96030.31;10561383;28;20032;-28
2022/09/15 14:04:32;;;;;;;2.70;0.52;;;;;;;20.20;69.33;96025.25;10552524;28;20522;-28
2022/09/15 14:09:42;;;;;;;0.87;0.50;;;;;;;20.24;69.23;96016.69;10562787;28;20039;-28
2022/09/15 14:14:52;;;;;;;0.82;0.50;;;;;;;20.25;69.04;96019.22;10549420;28;20036;-28
2022/09/15 14:19:58;;;;;;;0.90;0.60;;;;;;;20.23;69.06;96017.56;10558593;28;20042;-28
2022/09/15 14:25:04;;;;;;;1.17;0.40;;;;;;;20.21;69.25;96015.06;10554524;28;20127;-29
2022/09/15 14:30:15;;;;;;;1.40;0.40;;;;;;;20.20;69.04;96013.41;10553286;28;20094;-28
2022/09/15 14:35:19;;;;;;;0.73;0.40;;;;;;;20.19;69.11;96008.34;10555326;28;20027;-28
2022/09/15 14:40:40;;;;;;;1.25;0.50;;;;;;;20.19;69.11;96010.88;10552943;28;20081;-28
2022/09/15 14:45:41;;;;;;;1.77;0.75;;;;;;;20.09;69.46;96006.81;10542494;28;20135;-29
2022/09/15 14:50:44;;;;;;;1.50;0.70;;;;;;;20.15;69.17;96011.78;10552427;28;20036;-28
2022/09/15 14:55:59;;;;;;;5.47;1.00;;;;;;;20.13;69.12;96011.81;10558093;28;20122;-28
2022/09/15 15:01:12;;;;;;;1.08;0.68;;;;;;;20.19;69.13;96013.41;10556377;28;20031;-27
2022/09/15 15:06:21;;;;;;;0.93;0.70;;;;;;;20.19;68.81;96021.03;10553262;28;20027;-28
2022/09/15 15:11:22;;;;;;;1.42;0.80;;;;;;;20.19;68.78;96014.25;10558478;27;20437;-28
2022/09/15 15:16:29;;;;;;;2.05;0.80;;;;;;;20.16;68.98;96019.38;10546316;28;20441;-28
2022/09/15 15:21:37;;;;;;;0.88;0.60;;;;;;;20.15;69.04;96016.88;10551514;28;20050;-28
2022/09/15 15:26:40;;;;;;;2.15;0.60;;;;;;;20.15;69.24;96024.47;10555021;28;20429;-28
2022/09/15 15:31:40;;;;;;;1.10;0.75;;;;;;;20.01;68.90;96014.53;10541078;28;20039;-29
2022/09/15 15:36:40;;;;;;;1.87;0.90;;;;;;;20.05;68.78;96020.44;10555759;28;20031;-28
2022/09/15 15:41:41;;;;;;;0.70;0.70;;;;;;;20.10;69.05;96026.28;10552300;28;20024;-28
2022/09/15 15:46:52;;;;;;;1.10;0.50;;;;;;;20.11;69.06;96035.59;10553534;28;20119;-28
2022/09/15 15:51:54;;;;;;;1.70;0.80;;;;;;;20.14;68.84;96040.59;10549513;28;20039;-28
2022/09/15 15:57:18;;;;;;;0.65;0.60;;;;;;;20.18;68.57;96050.69;10549324;28;20553;-26
2022/09/15 16:02:19;;;;;;;0.82;0.68;;;;;;;20.14;68.65;96053.31;10547956;28;20032;-28
2022/09/15 16:07:22;;;;;;;1.40;0.90;;;;;;;20.10;68.67;96052.53;10548823;28;20164;-28
2022/09/15 16:12:23;;;;;;;1.30;0.88;;;;;;;20.13;68.58;96059.25;10553987;28;20040;-28
2022/09/15 16:17:23;;;;;;;1.90;0.73;;;;;;;20.11;68.46;96053.38;10541271;28;20054;-27
2022/09/15 16:22:23;;;;;;;1.23;0.73;;;;;;;20.09;68.65;96057.66;10549879;28;20510;-28
2022/09/15 16:27:24;;;;;;;0.63;0.47;;;;;;;20.11;68.44;96066.06;10558330;28;20487;-29
2022/09/15 16:32:24;;;;;;;0.87;0.60;;;;;;;20.10;68.62;96069.47;10549812;28;20040;-28
2022/09/15 16:37:24;;;;;;;0.60;0.60;;;;;;;20.12;68.75;96068.59;10547631;28;20427;-29
2022/09/15 16:42:25;;;;;;;11.37;1.93;;;;;;;20.19;68.10;96070.16;10544717;28;20048;-29
2022/09/15 16:47:25;;;;;;;3.50;0.90;;;;;;;20.19;68.13;96066.78;10549368;28;20071;-28
2022/09/15 16:52:26;;;;;;;3.77;0.80;;;;;;;20.13;68.24;96075.34;10547746;28;20051;-28
2022/09/15 16:57:26;;;;;;;2.27;0.80;;;;;;;20.14;68.17;96066.88;10551990;28;20384;-28
2022/09/15 17:02:26;;;;;;;1.30;1.10;;;;;;;20.12;68.36;96070.28;10539704;28;20032;-28
2022/09/15 17:07:27;;;;;;;2.40;1.00;;;;;;;20.10;68.43;96077.09;10547580;28;20028;-28
2022/09/15 17:12:27;;;;;;;1.30;0.87;;;;;;;20.10;68.50;96074.56;10552659;28;20152;-28
2022/09/15 17:17:27;;;;;;;8.80;2.23;;;;;;;20.10;68.69;96069.47;10542237;28;20040;-28
2022/09/15 17:22:28;;;;;;;26.90;3.03;;;;;;;20.11;68.36;96061.81;10541466;28;20761;-28
2022/09/15 17:27:28;;;;;;;6.87;2.13;;;;;;;20.02;68.47;96056.84;10532049;28;20431;-28
2022/09/15 17:32:28;;;;;;;1.47;1.00;;;;;;;20.12;68.20;96073.69;10537351;28;20039;-28
2022/09/15 17:37:29;;;;;;;2.97;1.30;;;;;;;20.16;68.23;96071.91;10543590;28;20399;-28
2022/09/15 17:42:30;;;;;;;2.27;1.10;;;;;;;20.15;68.30;96067.69;10538317;28;20434;-28
2022/09/15 17:47:31;;;;;;;1.40;1.00;;;;;;;20.13;68.27;96074.50;10550551;28;20042;-28
2022/09/15 17:52:32;;;;;;;1.95;1.10;;;;;;;20.11;68.27;96066.91;10534278;28;20044;-29
2022/09/15 17:57:32;;;;;;;4.63;1.37;;;;;;;20.11;67.99;96077.06;10529425;28;20024;-28
2022/09/15 18:02:32;;;;;;;1.50;0.80;;;;;;;20.16;67.93;96074.44;10529106;28;20301;-28
2022/09/15 18:07:33;;;;;;;4.43;1.15;;;;;;;20.20;67.67;96082.03;10532996;28;20046;-28
2022/09/15 18:12:34;;;;;;;2.45;0.90;;;;;;;20.28;67.27;96089.50;10540943;28;20157;-28
2022/09/15 18:17:34;;;;;;;2.77;0.90;;;;;;;20.29;67.08;96091.19;10556711;28;20047;-28
2022/09/15 18:22:34;;;;;;;2.17;1.20;;;;;;;20.27;67.08;96087.84;10544840;28;20036;-28
2022/09/15 18:27:35;;;;;;;1.20;0.80;;;;;;;20.34;66.53;96104.66;10533044;28;20046;-28
2022/09/15 18:32:35;;;;;;;1.10;1.00;;;;;;;20.34;66.39;96099.59;10532228;28;20062;-28
2022/09/15 18:37:37;;;;;;;1.93;1.20;;;;;;;20.30;66.35;96108.09;10529819;28;20024;-28
2022/09/15 18:42:38;;;;;;;1.52;1.00;;;;;;;20.43;65.96;96108.72;10550248;28;20496;-28
2022/09/15 18:47:41;;;;;;;2.58;1.02;;;;;;;20.47;65.53;96117.97;10536794;28;20123;-27
2022/09/15 18:52:41;;;;;;;1.50;0.82;;;;;;;20.52;65.71;96121.28;10529210;28;20116;-29
2022/09/15 18:57:44;;;;;;;1.15;0.80;;;;;;;20.54;65.64;96114.44;10529344;28;20132;-28
2022/09/15 19:02:44;;;;;;;1.50;0.70;;;;;;;20.55;65.56;96120.38;10530356;28;20526;-28
2022/09/15 19:07:44;;;;;;;1.40;0.80;;;;;;;20.53;65.65;96117.88;10498667;28;20044;-28
2022/09/15 19:12:45;;;;;;;0.88;0.65;;;;;;;20.48;65.72;96124.72;10524180;28;20039;-27
2022/09/15 19:17:45;;;;;;;1.48;1.17;;;;;;;20.61;65.70;96131.28;10532479;28;20488;-28
2022/09/15 19:22:46;;;;;;;1.00;0.90;;;;;;;20.72;65.43;96134.47;10530887;28;20028;-28
2022/09/15 19:27:47;;;;;;;2.33;0.90;;;;;;;20.68;65.29;96135.41;10550120;28;20067;-28
2022/09/15 19:32:47;;;;;;;0.77;0.77;;;;;;;20.61;65.28;96140.59;10542155;28;20040;-28
2022/09/15 19:37:48;;;;;;;1.67;0.77;;;;;;;20.62;65.24;96144.84;10534396;28;20483;-29
2022/09/15 19:42:49;;;;;;;3.73;0.90;;;;;;;20.61;65.25;96150.78;10521422;28;20054;-28
2022/09/15 19:47:49;;;;;;;2.15;0.80;;;;;;;20.61;65.09;96140.59;10535680;28;20179;-28
2022/09/15 19:52:49;;;;;;;1.43;0.87;;;;;;;20.56;65.52;96158.50;10516129;28;20088;-28
2022/09/15 19:57:50;;;;;;;1.10;0.70;;;;;;;20.56;65.22;96158.50;10527271;28;20066;-28
2022/09/15 20:02:50;;;;;;;1.50;1.00;;;;;;;20.54;65.31;96160.22;10522383;28;20039;-28
2022/09/15 20:07:51;;;;;;;1.57;1.20;;;;;;;20.42;65.57;96160.44;10523267;28;20290;-28
2022/09/15 20:12:51;;;;;;;0.70;0.70;;;;;;;20.41;65.54;96165.53;10521826;28;20028;-29
2022/09/15 20:17:51;;;;;;;3.40;0.90;;;;;;;20.36;65.36;96169.03;10512474;28;20032;-27
2022/09/15 20:22:52;;;;;;;2.33;1.00;;;;;;;20.26;65.42;96177.66;10520420;28;20058;-30
2022/09/15 20:27:52;;;;;;;2.17;1.20;;;;;;;20.17;65.57;96180.34;10526178;28;20046;-29
2022/09/15 20:32:52;;;;;;;1.67;1.00;;;;;;;20.18;65.47;96174.41;10522339;28;20294;-31
2022/09/15 20:37:53;;;;;;;2.77;1.07;;;;;;;20.14;65.43;96188.00;10541382;28;20055;-28
2022/09/15 20:42:53;;;;;;;2.78;1.50;;;;;;;20.12;65.15;96184.66;10544539;28;20046;-28
2022/09/15 20:47:53;;;;;;;1.87;1.37;;;;;;;20.10;65.00;96181.31;10538360;28;20567;-28
2022/09/15 20:52:54;;;;;;;1.47;1.20;;;;;;;20.08;65.16;96183.03;10530487;28;20020;-28
2022/09/15 20:57:54;;;;;;;2.20;1.30;;;;;;;20.10;64.97;96191.47;10532619;28;20024;-28
2022/09/15 21:02:55;;;;;;;2.97;1.20;;;;;;;20.31;64.22;96194.53;10531468;28;20032;-28
2022/09/15 21:07:55;;;;;;;1.98;1.08;;;;;;;20.47;64.04;96181.53;10555890;28;20024;-28
2022/09/15 21:12:56;;;;;;;2.23;1.20;;;;;;;20.44;63.93;96184.13;10548563;28;20048;-28
2022/09/15 21:17:57;;;;;;;1.58;1.08;;;;;;;20.33;64.41;96180.09;10531955;28;20388;-28
2022/09/15 21:22:57;;;;;;;1.50;1.35;;;;;;;20.26;64.27;96177.66;10529950;28;20047;-28
2022/09/15 21:27:57;;;;;;;1.57;1.40;;;;;;;20.20;64.11;96185.38;10538187;28;20044;-28
2022/09/15 21:32:58;;;;;;;3.23;1.30;;;;;;;20.17;64.31;96193.88;10551631;28;20044;-29
2022/09/15 21:37:58;;;;;;;2.75;1.73;;;;;;;20.14;64.23;96190.53;10555353;28;20491;-31
2022/09/15 21:42:58;;;;;;;3.30;1.13;;;;;;;20.12;64.34;96195.69;10554859;28;20035;-28
2022/09/15 21:47:59;;;;;;;1.17;1.00;;;;;;;20.11;63.98;96193.16;10557728;28;20084;-29
2022/09/15 21:52:59;;;;;;;3.23;1.60;;;;;;;20.11;64.12;96208.41;10552853;27;20140;-28
2022/09/15 21:57:59;;;;;;;1.13;1.03;;;;;;;20.19;63.92;96201.50;10557298;28;20415;-28
2022/09/15 22:03:00;;;;;;;1.60;1.20;;;;;;;20.19;63.95;96207.41;10552105;28;20036;-28
2022/09/15 22:08:00;;;;;;;3.23;1.33;;;;;;;20.12;63.81;96199.91;10556077;28;20487;-28
2022/09/15 22:13:01;;;;;;;2.92;1.48;;;;;;;20.10;63.83;96196.56;10560296;28;20044;-29
2022/09/15 22:18:03;;;;;;;2.67;1.48;;;;;;;20.04;63.84;96187.31;10555797;28;20024;-27
2022/09/15 22:23:03;;;;;;;1.33;1.20;;;;;;;20.02;63.73;96195.78;10559169;28;20036;-29
2022/09/15 22:28:03;;;;;;;1.83;1.65;;;;;;;20.01;64.09;96197.47;10560148;28;20032;-28
2022/09/15 22:33:04;;;;;;;4.73;1.33;;;;;;;20.00;64.21;96195.81;10556245;28;20115;-28
2022/09/15 22:38:04;;;;;;;2.70;1.10;;;;;;;19.99;63.94;96199.22;10559487;28;20117;-29
2022/09/15 22:43:05;;;;;;;2.90;1.40;;;;;;;19.98;64.00;96192.44;10551911;28;20491;-28
2022/09/15 22:48:05;;;;;;;3.05;1.20;;;;;;;20.01;63.88;96204.28;10555735;28;20040;-28
2022/09/15 22:53:06;;;;;;;2.30;1.50;;;;;;;20.05;63.62;96194.06;10550695;28;20112;-28
2022/09/15 22:58:07;;;;;;;5.33;2.23;;;;;;;20.03;63.86;96189.84;10556211;28;20035;-28
2022/09/15 23:03:08;;;;;;;2.17;1.60;;;;;;;20.01;63.89;96182.22;10548012;28;20118;-28
2022/09/15 23:08:09;;;;;;;7.13;1.67;;;;;;;20.00;63.79;96180.56;10531383;28;20048;-28
2022/09/15 23:13:10;;;;;;;4.38;2.28;;;;;;;19.98;63.93;96189.06;10549987;28;20449;-27
2022/09/15 23:18:11;;;;;;;3.00;1.65;;;;;;;19.96;63.95;96171.31;10551923;28;20028;-28
2022/09/15 23:23:11;;;;;;;3.50;1.30;;;;;;;19.94;63.93;96164.56;10555734;28;20465;-28
2022/09/15 23:28:11;;;;;;;2.37;1.80;;;;;;;19.93;63.95;96176.41;10556860;28;20293;-28
2022/09/15 23:33:12;;;;;;;5.33;1.80;;;;;;;19.93;63.75;96173.06;10546759;28;20040;-28